Time;durP1;ratioP1;P1;durP2;ratioP2;P2;SDS_P1;SDS_P2;PMS_P1;PMS_P2;Temp;Humidity;BMP_temperature;BMP_pressure;BME280_temperature;BME280_humidity;BME280_pressure;Samples;Min_cycle;Max_cycle;Signal;HPM_P1;HPM_P2
2024/04/25 00:01:45;;;;;;;12.87;4.47;;;;;;;;;;5394498;26;20010;-55
2024/04/25 00:04:11;;;;;;;14.80;4.20;;;;;;;;;;5384461;26;20005;-57
2024/04/25 00:06:36;;;;;;;13.20;4.13;;;;;;;;;;5397321;26;20004;-53
2024/04/25 00:09:02;;;;;;;10.83;3.80;;;;;;;;;;5389731;26;20019;-53
2024/04/25 00:11:27;;;;;;;11.23;4.27;;;;;;;;;;5394794;26;20246;-57
2024/04/25 00:13:56;;;;;;;9.47;3.63;;;;;;;;;;5392119;26;20013;-54
2024/04/25 00:16:23;;;;;;;10.80;3.72;;;;;;;;;;5396602;26;20076;-55
2024/04/25 00:18:48;;;;;;;10.38;4.20;;;;;;;;;;5394131;26;20008;-54
2024/04/25 00:21:13;;;;;;;8.00;4.13;;;;;;;;;;5393924;26;20004;-55
2024/04/25 00:23:39;;;;;;;11.70;3.80;;;;;;;;;;5393392;26;20020;-53
2024/04/25 00:26:05;;;;;;;17.20;5.20;;;;;;;;;;5396187;26;20012;-56
2024/04/25 00:28:30;;;;;;;11.97;3.80;;;;;;;;;;5391305;26;20047;-58
2024/04/25 00:30:55;;;;;;;13.00;3.80;;;;;;;;;;5395430;26;20302;-55
2024/04/25 00:33:21;;;;;;;11.68;4.28;;;;;;;;;;5391387;26;20004;-56
2024/04/25 00:35:47;;;;;;;19.00;4.80;;;;;;;;;;5385616;26;20058;-55
2024/04/25 00:38:12;;;;;;;12.05;3.65;;;;;;;;;;5384250;26;20078;-56
2024/04/25 00:40:38;;;;;;;21.60;4.00;;;;;;;;;;5380261;26;20055;-56
2024/04/25 00:43:04;;;;;;;10.77;3.67;;;;;;;;;;5382093;26;20239;-56
2024/04/25 00:45:32;;;;;;;12.55;3.30;;;;;;;;;;5386977;26;20019;-56
2024/04/25 00:47:58;;;;;;;8.52;3.88;;;;;;;;;;5389966;26;20009;-53
2024/04/25 00:50:23;;;;;;;7.80;2.85;;;;;;;;;;5388144;26;20015;-57
2024/04/25 00:52:49;;;;;;;20.10;5.50;;;;;;;;;;5388648;26;20001;-58
2024/04/25 00:55:15;;;;;;;8.30;3.10;;;;;;;;;;5386269;26;20008;-56
2024/04/25 00:57:41;;;;;;;18.97;3.13;;;;;;;;;;5379027;26;20016;-57
2024/04/25 01:00:07;;;;;;;12.25;3.20;;;;;;;;;;5384336;26;20054;-56
2024/04/25 01:02:33;;;;;;;9.82;2.75;;;;;;;;;;5388127;26;20008;-57
2024/04/25 01:05:00;;;;;;;15.93;4.03;;;;;;;;;;5384824;26;20020;-54
2024/04/25 01:07:26;;;;;;;9.93;2.70;;;;;;;;;;5384837;26;20055;-56
2024/04/25 01:09:55;;;;;;;5.20;2.37;;;;;;;;;;5379879;26;20054;-54
2024/04/25 01:12:22;;;;;;;14.38;3.40;;;;;;;;;;5385110;26;20271;-54
2024/04/25 01:14:47;;;;;;;12.13;2.72;;;;;;;;;;5388136;26;20032;-56
2024/04/25 01:17:12;;;;;;;9.87;2.73;;;;;;;;;;5391120;26;20000;-55
2024/04/25 01:19:38;;;;;;;12.27;2.87;;;;;;;;;;5324984;26;20004;-55
2024/04/25 01:22:04;;;;;;;11.63;2.40;;;;;;;;;;5382590;26;20000;-55
2024/04/25 01:24:33;;;;;;;20.10;2.83;;;;;;;;;;5379961;26;20001;-57
2024/04/25 01:26:59;;;;;;;14.18;2.75;;;;;;;;;;5387296;26;20075;-58
2024/04/25 01:29:25;;;;;;;12.15;2.60;;;;;;;;;;5379761;26;20004;-55
2024/04/25 01:31:51;;;;;;;16.98;2.53;;;;;;;;;;5381831;26;20056;-55
2024/04/25 01:34:17;;;;;;;11.23;2.58;;;;;;;;;;5380809;26;20016;-57
2024/04/25 01:36:43;;;;;;;6.30;2.17;;;;;;;;;;5377451;26;20041;-55
2024/04/25 01:39:09;;;;;;;8.87;2.33;;;;;;;;;;5387100;26;20004;-54
2024/04/25 01:41:34;;;;;;;6.47;1.90;;;;;;;;;;5381558;26;20015;-56
2024/04/25 01:44:01;;;;;;;8.80;2.30;;;;;;;;;;5379733;26;20051;-55
2024/04/25 01:46:26;;;;;;;9.88;1.98;;;;;;;;;;5384802;26;20231;-51
2024/04/25 01:48:52;;;;;;;8.97;1.90;;;;;;;;;;5391831;26;20051;-54
2024/04/25 01:51:18;;;;;;;6.47;1.90;;;;;;;;;;5392485;26;20004;-56
2024/04/25 01:53:44;;;;;;;7.20;2.42;;;;;;;;;;5389136;26;20019;-55
2024/04/25 01:56:11;;;;;;;6.38;2.13;;;;;;;;;;5392353;26;20000;-57
2024/04/25 01:58:36;;;;;;;6.43;2.38;;;;;;;;;;5393780;26;20000;-55
2024/04/25 02:01:02;;;;;;;9.20;2.07;;;;;;;;;;5389129;26;20012;-56
2024/04/25 02:03:27;;;;;;;8.27;2.42;;;;;;;;;;5391929;26;20015;-57
2024/04/25 02:05:53;;;;;;;7.30;2.03;;;;;;;;;;5392509;26;20086;-55
2024/04/25 02:08:18;;;;;;;6.63;1.70;;;;;;;;;;5395452;26;20020;-55
2024/04/25 02:10:44;;;;;;;12.03;2.27;;;;;;;;;;5392545;26;20010;-55
2024/04/25 02:13:10;;;;;;;6.05;2.35;;;;;;;;;;5389405;26;20001;-56
2024/04/25 02:15:35;;;;;;;10.03;2.40;;;;;;;;;;5361373;26;20012;-57
2024/04/25 02:18:00;;;;;;;4.30;1.80;;;;;;;;;;5394916;26;20237;-57
2024/04/25 02:25:59;;;;;;;15.88;2.90;;;;;;;;;;5391765;26;20054;-56
2024/04/25 02:28:25;;;;;;;11.77;2.70;;;;;;;;;;5391207;26;20013;-56
2024/04/25 02:30:50;;;;;;;10.43;2.10;;;;;;;;;;5393280;26;20091;-57
2024/04/25 02:33:16;;;;;;;11.52;2.45;;;;;;;;;;5392712;26;20007;-57
2024/04/25 02:35:41;;;;;;;10.37;1.80;;;;;;;;;;5391792;26;20028;-56
2024/04/25 02:38:06;;;;;;;6.57;2.20;;;;;;;;;;5391668;26;20007;-57
2024/04/25 02:40:32;;;;;;;6.27;2.43;;;;;;;;;;5393879;26;20023;-57
2024/04/25 02:42:57;;;;;;;12.33;2.40;;;;;;;;;;5391794;26;19996;-56
2024/04/25 02:45:23;;;;;;;12.05;3.38;;;;;;;;;;5389551;26;20067;-54
2024/04/25 02:47:49;;;;;;;17.83;2.47;;;;;;;;;;5392942;26;20008;-56
2024/04/25 02:50:14;;;;;;;11.10;2.47;;;;;;;;;;5390651;26;20046;-57
2024/04/25 02:52:40;;;;;;;9.33;2.37;;;;;;;;;;5389964;26;20032;-54
2024/04/25 02:55:05;;;;;;;6.60;2.20;;;;;;;;;;5392739;26;20007;-57
2024/04/25 02:57:30;;;;;;;10.13;2.57;;;;;;;;;;5393572;26;20016;-57
2024/04/25 02:59:56;;;;;;;6.67;2.63;;;;;;;;;;5390488;26;20004;-55
2024/04/25 03:02:21;;;;;;;9.57;3.23;;;;;;;;;;5389351;26;20012;-55
2024/04/25 03:04:47;;;;;;;12.43;3.30;;;;;;;;;;5383428;26;20279;-57
2024/04/25 03:07:13;;;;;;;7.70;2.70;;;;;;;;;;5382896;26;20088;-56
2024/04/25 03:09:39;;;;;;;7.67;2.50;;;;;;;;;;5381250;26;20005;-55
2024/04/25 03:12:04;;;;;;;16.07;2.37;;;;;;;;;;5384135;26;20247;-55
2024/04/25 03:14:30;;;;;;;7.47;2.80;;;;;;;;;;5352451;26;20004;-58
2024/04/25 03:16:56;;;;;;;9.43;2.67;;;;;;;;;;5383291;26;20293;-55
2024/04/25 03:19:22;;;;;;;6.32;2.33;;;;;;;;;;5372442;26;20012;-54
2024/04/25 03:21:47;;;;;;;7.93;2.77;;;;;;;;;;5381814;26;20011;-55
2024/04/25 03:24:12;;;;;;;14.03;3.40;;;;;;;;;;5374110;26;20051;-54
2024/04/25 03:26:37;;;;;;;6.20;2.50;;;;;;;;;;5384841;26;20013;-54
2024/04/25 03:29:04;;;;;;;12.02;3.28;;;;;;;;;;5382410;26;20013;-54
2024/04/25 03:31:30;;;;;;;11.38;3.00;;;;;;;;;;5380190;26;20015;-54
2024/04/25 03:33:56;;;;;;;8.13;2.27;;;;;;;;;;5383139;26;20008;-56
2024/04/25 03:36:21;;;;;;;14.00;2.60;;;;;;;;;;5386048;26;20228;-53
2024/04/25 03:38:47;;;;;;;11.23;2.93;;;;;;;;;;5386620;26;20015;-55
2024/04/25 03:41:13;;;;;;;13.20;3.47;;;;;;;;;;5387638;26;20000;-56
2024/04/25 03:43:39;;;;;;;15.80;4.28;;;;;;;;;;5378696;26;20029;-58
2024/04/25 03:46:05;;;;;;;10.90;3.00;;;;;;;;;;5385846;26;20039;-53
2024/04/25 03:48:30;;;;;;;12.65;2.90;;;;;;;;;;5381083;26;20004;-57
2024/04/25 03:50:56;;;;;;;12.80;3.13;;;;;;;;;;5382373;26;20005;-55
2024/04/25 03:53:21;;;;;;;10.00;3.73;;;;;;;;;;5381346;26;20008;-54
2024/04/25 03:55:47;;;;;;;9.77;3.42;;;;;;;;;;5378436;26;20001;-55
2024/04/25 03:58:13;;;;;;;12.82;3.33;;;;;;;;;;5386483;26;20096;-55
2024/04/25 04:00:38;;;;;;;16.57;3.40;;;;;;;;;;5375876;26;20036;-56
2024/04/25 04:03:03;;;;;;;7.80;3.35;;;;;;;;;;5390436;26;20000;-57
2024/04/25 04:05:29;;;;;;;12.83;4.10;;;;;;;;;;5383113;26;20000;-58
2024/04/25 04:07:54;;;;;;;10.65;4.35;;;;;;;;;;5386031;26;19997;-56
2024/04/25 04:10:20;;;;;;;9.77;4.07;;;;;;;;;;5385552;26;20004;-56
2024/04/25 04:12:47;;;;;;;16.00;4.80;;;;;;;;;;5381408;26;20018;-51
2024/04/25 04:15:13;;;;;;;18.15;5.43;;;;;;;;;;5374686;26;20005;-55
2024/04/25 04:17:39;;;;;;;22.13;5.17;;;;;;;;;;5385001;26;20029;-55
2024/04/25 04:20:05;;;;;;;14.32;5.90;;;;;;;;;;5383604;26;20243;-57
2024/04/25 04:22:30;;;;;;;24.50;6.27;;;;;;;;;;5384424;26;20011;-54
2024/04/25 04:24:55;;;;;;;16.93;5.13;;;;;;;;;;5378357;26;20239;-56
2024/04/25 04:27:21;;;;;;;12.40;5.33;;;;;;;;;;5382133;26;20015;-56
2024/04/25 04:29:46;;;;;;;11.02;5.00;;;;;;;;;;5382903;26;20047;-54
2024/04/25 04:32:12;;;;;;;19.73;5.72;;;;;;;;;;5383817;26;20004;-55
2024/04/25 04:34:37;;;;;;;25.23;5.13;;;;;;;;;;5379895;26;20001;-55
2024/04/25 04:37:02;;;;;;;12.27;5.37;;;;;;;;;;5389208;26;20004;-56
2024/04/25 04:39:28;;;;;;;12.47;4.50;;;;;;;;;;5378936;26;19992;-57
2024/04/25 04:41:53;;;;;;;9.17;4.37;;;;;;;;;;5393825;26;20002;-54
2024/04/25 04:44:18;;;;;;;15.40;5.40;;;;;;;;;;5394299;26;19996;-54
2024/04/25 04:46:43;;;;;;;11.10;5.00;;;;;;;;;;5386467;26;20019;-54
2024/04/25 04:49:09;;;;;;;16.02;5.45;;;;;;;;;;5388574;26;20015;-56
2024/04/25 04:51:35;;;;;;;13.77;5.03;;;;;;;;;;5395665;26;20019;-56
2024/04/25 04:54:00;;;;;;;11.70;4.73;;;;;;;;;;5386408;26;20020;-55
2024/04/25 04:56:25;;;;;;;10.60;5.23;;;;;;;;;;5370943;26;20235;-57
2024/04/25 04:58:51;;;;;;;11.80;5.13;;;;;;;;;;5382152;26;19996;-56
2024/04/25 05:01:16;;;;;;;18.83;5.53;;;;;;;;;;5383865;26;19996;-56
2024/04/25 05:03:43;;;;;;;16.23;5.83;;;;;;;;;;5378406;26;20220;-57
2024/04/25 05:06:09;;;;;;;10.40;5.45;;;;;;;;;;5386252;26;20032;-56
2024/04/25 05:08:35;;;;;;;15.38;6.07;;;;;;;;;;5384258;26;19996;-58
2024/04/25 05:11:01;;;;;;;11.68;5.63;;;;;;;;;;5380458;26;20019;-55
2024/04/25 05:13:27;;;;;;;11.53;5.17;;;;;;;;;;5381034;26;20001;-54
2024/04/25 05:15:53;;;;;;;22.73;6.03;;;;;;;;;;5379304;26;20326;-55
2024/04/25 05:18:18;;;;;;;18.53;5.90;;;;;;;;;;5379510;26;20032;-52
2024/04/25 05:20:44;;;;;;;15.93;5.73;;;;;;;;;;5353812;26;20005;-55
2024/04/25 05:23:09;;;;;;;11.93;5.50;;;;;;;;;;5380181;26;20012;-57
2024/04/25 05:25:34;;;;;;;17.03;5.43;;;;;;;;;;5376267;26;20013;-55
2024/04/25 05:28:00;;;;;;;13.65;5.03;;;;;;;;;;5387805;26;20012;-54
2024/04/25 05:30:26;;;;;;;12.87;4.10;;;;;;;;;;5390202;26;20012;-55
2024/04/25 05:32:52;;;;;;;13.15;4.93;;;;;;;;;;5390300;26;20230;-57
2024/04/25 05:35:18;;;;;;;17.52;5.70;;;;;;;;;;5385519;26;20003;-58
2024/04/25 05:37:44;;;;;;;17.53;5.23;;;;;;;;;;5351041;26;20012;-52
2024/04/25 05:40:10;;;;;;;13.98;4.63;;;;;;;;;;5361018;26;20020;-57
2024/04/25 05:42:35;;;;;;;10.25;4.93;;;;;;;;;;5389673;26;19996;-55
2024/04/25 05:45:02;;;;;;;13.48;4.68;;;;;;;;;;5393560;26;20050;-55
2024/04/25 05:47:28;;;;;;;15.30;5.10;;;;;;;;;;5386236;26;20009;-55
2024/04/25 05:49:53;;;;;;;22.77;5.40;;;;;;;;;;5393212;26;20012;-56
2024/04/25 05:52:19;;;;;;;13.95;5.57;;;;;;;;;;5390584;26;20001;-55
2024/04/25 05:54:44;;;;;;;16.40;5.37;;;;;;;;;;5392495;26;20004;-54
2024/04/25 05:57:10;;;;;;;9.65;5.20;;;;;;;;;;5387666;26;20015;-52
2024/04/25 05:59:36;;;;;;;15.27;5.15;;;;;;;;;;5391051;26;19993;-56
2024/04/25 06:02:02;;;;;;;16.03;4.90;;;;;;;;;;5384634;26;20013;-56
2024/04/25 06:04:30;;;;;;;19.92;6.35;;;;;;;;;;5390501;26;20263;-56
2024/04/25 06:06:56;;;;;;;10.63;4.18;;;;;;;;;;5388964;26;20046;-54
2024/04/25 06:09:21;;;;;;;23.60;4.77;;;;;;;;;;5389547;26;20033;-55
2024/04/25 06:11:47;;;;;;;14.67;4.63;;;;;;;;;;5363403;26;20016;-55
2024/04/25 06:14:13;;;;;;;16.45;4.30;;;;;;;;;;5388266;26;20019;-55
2024/04/25 06:16:39;;;;;;;8.48;3.72;;;;;;;;;;5391714;26;20000;-56
2024/04/25 06:19:06;;;;;;;8.20;4.10;;;;;;;;;;5387903;26;20010;-52
2024/04/25 06:21:31;;;;;;;13.50;4.50;;;;;;;;;;5392446;26;20001;-56
2024/04/25 06:23:57;;;;;;;15.67;4.73;;;;;;;;;;5357842;26;20008;-57
2024/04/25 06:26:22;;;;;;;13.13;3.90;;;;;;;;;;5390354;26;20007;-55
2024/04/25 06:28:47;;;;;;;12.97;4.77;;;;;;;;;;5388424;26;20011;-57
2024/04/25 06:31:13;;;;;;;11.63;4.00;;;;;;;;;;5390845;26;20017;-56
2024/04/25 06:33:39;;;;;;;13.52;4.57;;;;;;;;;;5390664;26;20005;-56
2024/04/25 06:36:04;;;;;;;15.50;4.80;;;;;;;;;;5388703;26;20009;-56
2024/04/25 06:38:30;;;;;;;16.57;5.57;;;;;;;;;;5392074;26;20012;-57
2024/04/25 06:40:55;;;;;;;18.77;4.53;;;;;;;;;;5394944;26;20262;-58
2024/04/25 06:43:21;;;;;;;9.63;4.83;;;;;;;;;;5391885;26;20012;-56
2024/04/25 06:45:46;;;;;;;16.13;4.80;;;;;;;;;;5367881;26;20048;-54
2024/04/25 06:48:11;;;;;;;11.47;4.43;;;;;;;;;;5366022;26;20011;-57
2024/04/25 06:50:38;;;;;;;15.17;4.97;;;;;;;;;;5366361;26;20037;-57
2024/04/25 06:53:04;;;;;;;11.40;4.38;;;;;;;;;;5365859;26;20036;-56
2024/04/25 06:55:29;;;;;;;14.27;4.38;;;;;;;;;;5364806;26;19997;-54
2024/04/25 06:57:55;;;;;;;14.03;3.73;;;;;;;;;;5364399;26;20029;-53
2024/04/25 07:00:20;;;;;;;12.93;4.57;;;;;;;;;;5367512;26;20050;-54
2024/04/25 07:02:46;;;;;;;5.40;2.40;;;;;;;;;;5367650;26;19997;-56
2024/04/25 07:05:11;;;;;;;7.03;2.60;;;;;;;;;;5365841;26;20008;-55
2024/04/25 07:07:37;;;;;;;5.95;2.95;;;;;;;;;;5357321;26;20041;-57
2024/04/25 07:10:02;;;;;;;8.97;2.87;;;;;;;;;;5368129;26;20000;-54
2024/04/25 07:12:30;;;;;;;6.95;2.85;;;;;;;;;;5367703;26;20016;-57
2024/04/25 07:14:56;;;;;;;10.77;3.22;;;;;;;;;;5368182;26;20009;-58
2024/04/25 07:17:21;;;;;;;8.43;2.42;;;;;;;;;;5368390;26;20040;-57
2024/04/25 07:19:47;;;;;;;15.52;3.10;;;;;;;;;;5357239;26;20006;-52
2024/04/25 07:22:12;;;;;;;10.85;3.13;;;;;;;;;;5366309;26;20029;-55
2024/04/25 07:24:37;;;;;;;7.40;2.73;;;;;;;;;;5367843;26;20036;-56
2024/04/25 07:27:03;;;;;;;7.30;3.28;;;;;;;;;;5367988;26;20008;-56
2024/04/25 07:29:28;;;;;;;14.30;4.00;;;;;;;;;;5367890;26;20013;-58
2024/04/25 07:31:54;;;;;;;6.03;3.00;;;;;;;;;;5367812;26;20298;-58
2024/04/25 07:34:19;;;;;;;9.07;3.13;;;;;;;;;;5368105;26;20004;-54
2024/04/25 07:36:45;;;;;;;10.45;3.55;;;;;;;;;;5367448;26;20008;-56
2024/04/25 07:39:10;;;;;;;13.10;3.53;;;;;;;;;;5368078;26;20005;-57
2024/04/25 07:41:36;;;;;;;5.87;3.33;;;;;;;;;;5368059;26;19997;-54
2024/04/25 07:44:02;;;;;;;9.00;3.63;;;;;;;;;;5367773;26;20235;-57
2024/04/25 07:46:27;;;;;;;9.03;3.87;;;;;;;;;;5367927;26;20271;-57
2024/04/25 07:48:52;;;;;;;10.30;4.00;;;;;;;;;;5368118;26;20007;-54
2024/04/25 07:51:18;;;;;;;8.18;3.60;;;;;;;;;;5367769;26;20464;-55
2024/04/25 07:53:44;;;;;;;14.23;3.70;;;;;;;;;;5367148;26;20010;-57
2024/04/25 07:56:10;;;;;;;;;;;;;;;;;;5367849;26;19996;-57
2024/04/25 07:58:35;;;;;;;7.20;3.43;;;;;;;;;;5367421;26;19933;-58
2024/04/25 08:01:02;;;;;;;7.93;3.30;;;;;;;;;;5367564;26;20000;-58
2024/04/25 08:03:27;;;;;;;8.90;3.38;;;;;;;;;;5367562;26;20304;-57
2024/04/25 08:05:53;;;;;;;13.77;3.67;;;;;;;;;;5367721;26;20008;-57
2024/04/25 08:08:18;;;;;;;12.93;3.72;;;;;;;;;;5367775;26;19992;-56
2024/04/25 08:10:45;;;;;;;11.50;3.73;;;;;;;;;;5367479;26;19993;-57
2024/04/25 08:13:11;;;;;;;10.52;4.28;;;;;;;;;;5367315;26;20011;-56
2024/04/25 08:15:37;;;;;;;12.00;3.53;;;;;;;;;;5367286;26;20008;-56
2024/04/25 08:18:06;;;;;;;8.00;2.85;;;;;;;;;;5367277;26;20333;-57
2024/04/25 08:20:32;;;;;;;12.43;4.10;;;;;;;;;;5367031;26;20056;-56
2024/04/25 08:22:58;;;;;;;6.95;2.28;;;;;;;;;;5363412;26;20001;-58
2024/04/25 08:25:23;;;;;;;8.73;2.35;;;;;;;;;;5366759;26;20007;-54
2024/04/25 08:27:49;;;;;;;4.73;2.30;;;;;;;;;;5366882;26;19997;-56
2024/04/25 08:30:14;;;;;;;6.87;1.90;;;;;;;;;;5367238;26;19997;-57
2024/04/25 08:32:41;;;;;;;8.65;2.17;;;;;;;;;;5366551;26;20027;-55
2024/04/25 08:35:07;;;;;;;12.30;2.63;;;;;;;;;;5367337;26;20013;-55
2024/04/25 08:37:34;;;;;;;9.88;2.90;;;;;;;;;;5366720;26;20015;-56
2024/04/25 08:39:59;;;;;;;4.68;2.53;;;;;;;;;;5367033;26;20004;-54
2024/04/25 08:42:26;;;;;;;8.27;3.03;;;;;;;;;;5366641;26;20053;-55
2024/04/25 08:44:52;;;;;;;12.10;3.78;;;;;;;;;;5366986;26;20001;-56
2024/04/25 08:47:19;;;;;;;10.00;3.55;;;;;;;;;;5366189;26;20001;-56
2024/04/25 08:49:46;;;;;;;8.88;2.20;;;;;;;;;;5366905;26;19997;-54
2024/04/25 08:52:11;;;;;;;9.13;2.47;;;;;;;;;;5360628;26;20115;-50
2024/04/25 08:54:38;;;;;;;7.32;1.88;;;;;;;;;;5360435;26;20001;-57
2024/04/25 08:57:03;;;;;;;9.35;2.45;;;;;;;;;;5361503;26;20004;-57
2024/04/25 08:59:29;;;;;;;6.32;2.78;;;;;;;;;;5361563;26;20000;-55
2024/04/25 09:01:55;;;;;;;6.53;2.57;;;;;;;;;;5363105;26;20052;-57
2024/04/25 09:04:22;;;;;;;;;;;;;;;;;;5334572;26;20015;-56
2024/04/25 09:06:47;;;;;;;6.63;3.20;;;;;;;;;;5360026;26;19926;-55
2024/04/25 09:09:14;;;;;;;14.15;4.07;;;;;;;;;;5337951;26;20263;-56
2024/04/25 09:11:40;;;;;;;13.07;3.40;;;;;;;;;;5360104;26;19997;-57
2024/04/25 09:14:05;;;;;;;11.80;3.13;;;;;;;;;;5361524;26;20004;-56
2024/04/25 09:16:36;;;;;;;8.77;3.10;;;;;;;;;;5361136;26;19997;-57
2024/04/25 09:19:02;;;;;;;12.00;3.40;;;;;;;;;;5361924;26;20005;-55
2024/04/25 09:21:27;;;;;;;11.80;2.77;;;;;;;;;;5361880;26;20489;-56
2024/04/25 09:23:54;;;;;;;11.90;3.20;;;;;;;;;;5360961;26;20251;-57
2024/04/25 09:26:20;;;;;;;12.03;3.80;;;;;;;;;;5361159;26;19997;-57
2024/04/25 09:28:46;;;;;;;12.77;3.88;;;;;;;;;;5362794;26;20280;-56
2024/04/25 09:31:11;;;;;;;5.97;2.72;;;;;;;;;;5362221;26;20009;-58
2024/04/25 09:33:37;;;;;;;8.43;3.17;;;;;;;;;;5360784;26;20059;-57
2024/04/25 09:36:03;;;;;;;7.63;2.60;;;;;;;;;;5361390;26;20271;-53
2024/04/25 09:38:28;;;;;;;6.13;2.50;;;;;;;;;;5360607;26;20251;-54
2024/04/25 09:40:55;;;;;;;9.47;2.80;;;;;;;;;;5360170;26;20008;-56
2024/04/25 09:43:22;;;;;;;6.53;1.67;;;;;;;;;;5361400;26;20068;-56
2024/04/25 09:45:48;;;;;;;17.73;1.95;;;;;;;;;;5363117;26;20235;-60
2024/04/25 09:48:14;;;;;;;;;;;;;;;;;;5363653;26;20001;-60
2024/04/25 09:50:45;;;;;;;22.52;2.75;;;;;;;;;;5363839;26;19985;-57
2024/04/25 09:53:14;;;;;;;8.25;2.05;;;;;;;;;;5341528;26;20008;-59
2024/04/25 09:55:43;;;;;;;11.13;2.28;;;;;;;;;;5364031;26;20028;-59
2024/04/25 09:58:32;;;;;;;6.90;2.35;;;;;;;;;;5358481;26;20001;-53
2024/04/25 10:00:58;;;;;;;9.13;3.20;;;;;;;;;;5353659;26;20008;-58
2024/04/25 10:03:25;;;;;;;6.82;2.85;;;;;;;;;;5362592;26;20012;-58
2024/04/25 10:05:50;;;;;;;15.63;3.53;;;;;;;;;;5363273;26;19993;-56
2024/04/25 10:08:16;;;;;;;12.63;4.03;;;;;;;;;;5363970;26;20007;-55
2024/04/25 10:10:41;;;;;;;9.23;3.20;;;;;;;;;;5364975;26;20223;-57
2024/04/25 10:13:11;;;;;;;12.70;4.25;;;;;;;;;;5335152;26;20021;-58
2024/04/25 10:15:38;;;;;;;12.02;4.32;;;;;;;;;;5363368;26;20005;-57
2024/04/25 10:18:04;;;;;;;14.73;3.95;;;;;;;;;;5364439;26;20013;-57
2024/04/25 10:20:30;;;;;;;10.63;4.00;;;;;;;;;;5363851;26;20000;-59
2024/04/25 10:22:57;;;;;;;15.23;4.13;;;;;;;;;;5361314;26;20019;-57
2024/04/25 10:25:23;;;;;;;8.40;4.15;;;;;;;;;;5360771;26;20264;-58
2024/04/25 10:27:56;;;;;;;13.18;4.05;;;;;;;;;;5361950;26;20001;-58
2024/04/25 10:30:21;;;;;;;11.07;3.90;;;;;;;;;;5362293;26;20008;-57
2024/04/25 10:32:47;;;;;;;13.60;4.30;;;;;;;;;;5362708;26;20022;-55
2024/04/25 10:35:12;;;;;;;11.27;4.07;;;;;;;;;;5362109;26;20330;-54
2024/04/25 10:37:38;;;;;;;8.67;3.70;;;;;;;;;;5364249;26;20268;-57
2024/04/25 10:40:04;;;;;;;9.63;3.85;;;;;;;;;;5364119;26;20001;-55
2024/04/25 10:42:30;;;;;;;14.40;3.85;;;;;;;;;;5363159;26;20052;-57
2024/04/25 10:44:56;;;;;;;13.05;3.55;;;;;;;;;;5362940;26;20033;-56
2024/04/25 10:47:21;;;;;;;17.45;4.22;;;;;;;;;;5362808;26;20012;-54
2024/04/25 10:49:47;;;;;;;7.72;3.22;;;;;;;;;;5364074;26;20012;-55
2024/04/25 10:52:13;;;;;;;10.20;3.30;;;;;;;;;;5364308;26;20001;-56
2024/04/25 10:54:38;;;;;;;7.97;2.60;;;;;;;;;;5362976;26;20021;-54
2024/04/25 10:57:04;;;;;;;8.60;3.83;;;;;;;;;;5363803;26;20064;-55
2024/04/25 10:59:30;;;;;;;15.40;3.17;;;;;;;;;;5363823;26;20005;-55
2024/04/25 11:02:00;;;;;;;7.93;2.50;;;;;;;;;;5363751;26;19997;-57
2024/04/25 11:04:32;;;;;;;6.43;2.88;;;;;;;;;;5360248;26;19997;-57
2024/04/25 11:06:58;;;;;;;5.60;2.50;;;;;;;;;;5360841;26;20008;-54
2024/04/25 11:09:27;;;;;;;4.10;1.80;;;;;;;;;;5360975;26;20016;-57
2024/04/25 11:11:53;;;;;;;6.38;1.95;;;;;;;;;;5360992;26;19997;-55
2024/04/25 11:14:19;;;;;;;3.80;1.63;;;;;;;;;;5336458;26;20001;-56
2024/04/25 11:16:44;;;;;;;9.10;1.73;;;;;;;;;;5360488;26;20010;-56
2024/04/25 11:19:10;;;;;;;11.73;1.95;;;;;;;;;;5360698;26;20028;-56
2024/04/25 11:21:36;;;;;;;11.20;2.10;;;;;;;;;;5362962;26;20322;-56
2024/04/25 11:24:03;;;;;;;10.02;2.40;;;;;;;;;;5338697;26;20021;-55
2024/04/25 11:26:28;;;;;;;14.95;3.85;;;;;;;;;;5362429;26;20016;-57
2024/04/25 11:28:54;;;;;;;7.77;2.40;;;;;;;;;;5363769;26;20021;-56
2024/04/25 11:31:20;;;;;;;8.55;2.72;;;;;;;;;;5363680;26;20048;-55
2024/04/25 11:33:47;;;;;;;5.33;2.40;;;;;;;;;;5344540;26;20000;-56
2024/04/25 11:36:25;;;;;;;6.00;3.17;;;;;;;;;;5367226;26;20228;-57
2024/04/25 11:38:51;;;;;;;10.90;3.20;;;;;;;;;;5367418;26;20220;-56
2024/04/25 11:41:17;;;;;;;12.23;2.97;;;;;;;;;;5366874;26;20244;-56
2024/04/25 11:43:42;;;;;;;7.80;2.83;;;;;;;;;;5367585;26;20005;-54
2024/04/25 11:46:08;;;;;;;7.88;3.33;;;;;;;;;;5367012;26;20016;-54
2024/04/25 11:48:33;;;;;;;14.57;3.17;;;;;;;;;;5367183;26;20013;-55
2024/04/25 11:50:59;;;;;;;9.52;3.10;;;;;;;;;;5367356;26;20017;-57
2024/04/25 11:53:24;;;;;;;11.18;2.88;;;;;;;;;;5366524;26;20033;-54
2024/04/25 11:55:50;;;;;;;8.93;3.23;;;;;;;;;;5366648;26;20011;-54
2024/04/25 11:58:15;;;;;;;11.93;3.40;;;;;;;;;;5367017;26;20224;-54
2024/04/25 12:00:47;;;;;;;10.77;3.40;;;;;;;;;;5366789;26;20004;-57
2024/04/25 12:03:13;;;;;;;10.07;3.20;;;;;;;;;;5366859;26;20003;-55
2024/04/25 12:05:38;;;;;;;8.37;3.60;;;;;;;;;;5366308;26;20271;-55
2024/04/25 12:08:04;;;;;;;6.33;2.70;;;;;;;;;;5367369;26;20275;-54
2024/04/25 12:10:30;;;;;;;7.90;3.17;;;;;;;;;;5366856;26;20314;-55
2024/04/25 12:12:56;;;;;;;5.00;2.30;;;;;;;;;;5367873;26;19997;-57
2024/04/25 12:15:22;;;;;;;5.00;2.17;;;;;;;;;;5367066;26;19997;-57
2024/04/25 12:17:47;;;;;;;10.57;2.50;;;;;;;;;;5367461;26;20005;-57
2024/04/25 12:20:13;;;;;;;13.38;3.28;;;;;;;;;;5367285;26;20008;-53
2024/04/25 12:22:38;;;;;;;8.57;2.50;;;;;;;;;;5367606;26;20012;-56
2024/04/25 12:25:04;;;;;;;11.90;3.00;;;;;;;;;;5366709;26;20030;-56
2024/04/25 12:27:29;;;;;;;6.28;2.50;;;;;;;;;;5367252;26;20017;-53
2024/04/25 12:29:55;;;;;;;8.13;2.30;;;;;;;;;;5367029;26;20008;-58
2024/04/25 12:32:20;;;;;;;8.63;2.80;;;;;;;;;;5367230;26;19997;-55
2024/04/25 12:34:46;;;;;;;8.20;2.33;;;;;;;;;;5366685;26;20013;-57
2024/04/25 12:37:11;;;;;;;14.05;3.13;;;;;;;;;;5366639;26;20015;-54
2024/04/25 12:39:41;;;;;;;6.10;2.30;;;;;;;;;;5366743;26;20012;-55
2024/04/25 12:42:07;;;;;;;8.40;2.83;;;;;;;;;;5366723;26;20000;-56
2024/04/25 12:44:32;;;;;;;10.57;3.65;;;;;;;;;;5365344;26;20017;-55
2024/04/25 12:46:58;;;;;;;18.48;4.85;;;;;;;;;;5366728;26;19997;-53
2024/04/25 12:49:36;;;;;;;7.95;3.25;;;;;;;;;;5367019;26;20005;-57
2024/04/25 12:52:05;;;;;;;8.97;3.00;;;;;;;;;;5366433;26;20004;-57
2024/04/25 12:54:31;;;;;;;8.37;3.10;;;;;;;;;;5366107;26;20052;-53
2024/04/25 12:56:56;;;;;;;8.25;3.30;;;;;;;;;;5366577;26;20005;-58
2024/04/25 12:59:22;;;;;;;12.73;3.55;;;;;;;;;;5366121;26;20045;-55
2024/04/25 13:01:47;;;;;;;7.93;3.38;;;;;;;;;;5365710;26;20012;-57
2024/04/25 13:04:13;;;;;;;7.47;3.10;;;;;;;;;;5366602;26;20059;-55
2024/04/25 13:06:39;;;;;;;6.80;2.78;;;;;;;;;;5366144;26;20024;-56
2024/04/25 13:09:04;;;;;;;;;;;;;;;;;;5366628;26;20004;-57
2024/04/25 13:11:30;;;;;;;7.50;3.03;;;;;;;;;;5366535;26;19996;-58
2024/04/25 13:13:55;;;;;;;8.85;2.95;;;;;;;;;;5366430;26;20052;-58
2024/04/25 13:16:21;;;;;;;6.60;3.10;;;;;;;;;;5365224;26;19997;-57
2024/04/25 13:18:46;;;;;;;8.82;2.85;;;;;;;;;;5365981;26;19997;-55
2024/04/25 13:21:12;;;;;;;7.18;3.38;;;;;;;;;;5366294;26;19997;-57
2024/04/25 13:23:38;;;;;;;10.60;3.40;;;;;;;;;;5366196;26;20011;-57
2024/04/25 13:26:04;;;;;;;9.23;3.55;;;;;;;;;;5365982;26;20015;-59
2024/04/25 13:28:29;;;;;;;11.55;3.55;;;;;;;;;;5365703;26;20001;-57
2024/04/25 13:30:54;;;;;;;5.93;2.73;;;;;;;;;;5366074;26;20040;-58
2024/04/25 13:33:20;;;;;;;6.30;2.97;;;;;;;;;;5366173;26;20063;-58
2024/04/25 13:35:45;;;;;;;11.02;3.42;;;;;;;;;;5366116;26;20057;-54
2024/04/25 13:38:11;;;;;;;8.30;3.30;;;;;;;;;;5365870;26;20015;-56
2024/04/25 13:40:36;;;;;;;10.10;3.47;;;;;;;;;;5366119;26;20009;-58
2024/04/25 13:43:02;;;;;;;9.30;3.30;;;;;;;;;;5365738;26;20387;-57
2024/04/25 13:45:27;;;;;;;10.20;3.38;;;;;;;;;;5365826;26;20011;-56
2024/04/25 13:47:53;;;;;;;8.35;3.13;;;;;;;;;;5336393;26;20011;-58
2024/04/25 13:50:18;;;;;;;8.45;3.28;;;;;;;;;;5366160;26;19997;-57
2024/04/25 13:52:44;;;;;;;9.23;3.53;;;;;;;;;;5365661;26;20005;-56
2024/04/25 13:55:09;;;;;;;8.50;3.92;;;;;;;;;;5365968;26;20001;-56
2024/04/25 13:57:35;;;;;;;13.77;3.67;;;;;;;;;;5365351;26;20004;-57
2024/04/25 14:00:00;;;;;;;8.30;2.63;;;;;;;;;;5365715;26;20001;-55
2024/04/25 14:02:26;;;;;;;10.17;3.83;;;;;;;;;;5365408;26;20293;-56
2024/04/25 14:04:51;;;;;;;11.73;3.35;;;;;;;;;;5366127;26;20460;-56
2024/04/25 14:07:17;;;;;;;9.23;3.55;;;;;;;;;;5365154;26;19992;-57
2024/04/25 14:09:42;;;;;;;12.63;3.37;;;;;;;;;;5365832;26;20211;-56
2024/04/25 14:12:08;;;;;;;9.20;3.25;;;;;;;;;;5365346;26;20141;-58
2024/04/25 14:14:33;;;;;;;13.50;4.38;;;;;;;;;;5364252;26;19993;-56
2024/04/25 14:16:59;;;;;;;7.78;3.65;;;;;;;;;;5365353;26;20039;-56
2024/04/25 14:19:25;;;;;;;5.00;3.03;;;;;;;;;;5365542;26;19997;-57
2024/04/25 14:21:51;;;;;;;10.95;4.00;;;;;;;;;;5365810;26;19997;-56
2024/04/25 14:24:17;;;;;;;10.93;4.88;;;;;;;;;;5365634;26;20011;-56
2024/04/25 14:29:27;;;;;;;12.50;4.63;;;;;;;;;;5365378;26;19933;-57
2024/04/25 14:31:53;;;;;;;10.70;3.93;;;;;;;;;;5365305;26;20251;-57
2024/04/25 14:34:18;;;;;;;8.10;4.20;;;;;;;;;;5365889;26;20453;-54
2024/04/25 14:36:44;;;;;;;9.00;4.80;;;;;;;;;;5364780;26;20008;-55